createdAt,value
2016-05-26T00:00:47.074Z,19.32
2016-05-26T00:01:47.045Z,19.35
2016-05-26T00:02:47.314Z,19.28
2016-05-26T00:03:47.425Z,19.27
2016-05-26T00:04:47.023Z,19.27
2016-05-26T00:05:47.009Z,19.28
2016-05-26T00:06:46.981Z,19.28
2016-05-26T00:07:46.811Z,19.27
2016-05-26T00:08:46.986Z,19.15
2016-05-26T00:09:46.942Z,19.23
2016-05-26T00:10:46.881Z,19.15
2016-05-26T00:11:46.931Z,19.23
2016-05-26T00:12:46.902Z,19.16
2016-05-26T00:13:46.889Z,19.23
2016-05-26T00:14:46.878Z,19.23
2016-05-26T00:15:46.880Z,19.27
2016-05-26T00:16:46.695Z,19.21
2016-05-26T00:17:46.854Z,19.28
2016-05-26T00:18:47.075Z,19.27
2016-05-26T00:19:46.641Z,19.25
2016-05-26T00:20:46.800Z,19.27
2016-05-26T00:21:46.802Z,19.13
2016-05-26T00:22:46.758Z,19.3
2016-05-26T00:23:46.605Z,19.57
2016-05-26T00:24:46.638Z,19.72
2016-05-26T00:25:46.719Z,19.8
2016-05-26T00:26:47.049Z,19.79
2016-05-26T00:27:46.709Z,19.8
2016-05-26T00:28:46.680Z,19.87
2016-05-26T00:29:46.682Z,19.85
2016-05-26T00:30:46.498Z,19.82
2016-05-26T00:31:46.485Z,19.94
2016-05-26T00:32:46.315Z,19.83
2016-05-26T00:33:46.459Z,19.9
2016-05-26T00:34:47.103Z,19.9
2016-05-26T00:35:46.590Z,19.92
2016-05-26T00:36:46.421Z,19.94
2016-05-26T00:37:46.565Z,19.95
2016-05-26T00:38:46.551Z,19.94
2016-05-26T00:39:46.539Z,19.95
2016-05-26T00:40:46.509Z,19.92
2016-05-26T00:41:46.497Z,19.97
2016-05-26T00:42:47.234Z,19.94
2016-05-26T00:43:46.470Z,19.98
2016-05-26T00:44:46.473Z,19.95
2016-05-26T00:45:46.444Z,20.01
2016-05-26T00:46:46.432Z,19.97
2016-05-26T00:47:46.810Z,20
2016-05-26T00:48:46.406Z,19.95
2016-05-26T00:49:46.236Z,19.97
2016-05-26T00:50:47.083Z,19.98
2016-05-26T00:51:46.367Z,19.95
2016-05-26T00:52:46.369Z,19.94
2016-05-26T00:53:46.341Z,20.01
2016-05-26T00:54:46.313Z,19.98
2016-05-26T00:55:46.159Z,19.92
2016-05-26T00:56:46.302Z,19.87
2016-05-26T00:57:46.149Z,19.97
2016-05-26T00:58:46.371Z,19.97
2016-05-26T00:59:46.279Z,20.01
2016-05-26T01:00:46.235Z,19.94
2016-05-26T01:01:46.223Z,19.9
2016-05-26T01:02:46.068Z,19.9
2016-05-26T01:03:46.196Z,20
2016-05-26T01:04:46.184Z,19.92
2016-05-26T01:05:46.171Z,19.95
2016-05-26T01:06:46.361Z,19.92
2016-05-26T01:07:45.989Z,19.94
2016-05-26T01:08:46.131Z,19.94
2016-05-26T01:09:46.119Z,19.92
2016-05-26T01:10:46.122Z,19.92
2016-05-26T01:11:46.092Z,19.9
2016-05-26T01:12:46.081Z,19.95
2016-05-26T01:13:46.067Z,19.95
2016-05-26T01:14:46.397Z,20
2016-05-26T01:15:46.041Z,19.95
2016-05-26T01:16:46.028Z,19.98
2016-05-26T01:17:46.062Z,19.94
2016-05-26T01:18:46.002Z,19.92
2016-05-26T01:19:45.989Z,19.97
2016-05-26T01:20:45.805Z,19.95
2016-05-26T01:21:45.980Z,20.05
2016-05-26T01:22:47.091Z,20.04
2016-05-26T01:23:45.921Z,19.97
2016-05-26T01:24:45.910Z,20.04
2016-05-26T01:25:45.896Z,20.01
2016-05-26T01:26:45.883Z,20
2016-05-26T01:27:45.870Z,19.98
2016-05-26T01:28:45.857Z,20.01
2016-05-26T01:29:45.844Z,19.97
2016-05-26T01:30:45.846Z,19.98
2016-05-26T01:31:45.663Z,20.1
2016-05-26T01:32:45.806Z,20.04
2016-05-26T01:33:45.793Z,19.92
2016-05-26T01:34:45.779Z,19.9
2016-05-26T01:35:45.767Z,19.94
2016-05-26T01:36:45.738Z,20.1
2016-05-26T01:37:45.741Z,20.1
2016-05-26T01:38:45.713Z,20.1
2016-05-26T01:39:45.731Z,20.1
2016-05-26T01:40:45.687Z,19.9
2016-05-26T01:41:45.673Z,20.04
2016-05-26T01:42:45.520Z,20.08
2016-05-26T01:43:45.664Z,19.98
2016-05-26T01:44:45.634Z,20.08
2016-05-26T01:45:45.622Z,20.1
2016-05-26T01:46:45.608Z,19.98
2016-05-26T01:47:45.721Z,20.08
2016-05-26T01:48:45.427Z,20.12
2016-05-26T01:49:45.569Z,20.13
2016-05-26T01:50:45.572Z,19.98
2016-05-26T01:51:45.528Z,19.98
2016-05-26T01:52:45.531Z,19.97
2016-05-26T01:53:45.519Z,19.95
2016-05-26T01:54:45.490Z,20.12
2016-05-26T01:55:45.493Z,19.97
2016-05-26T01:56:45.324Z,19.95
2016-05-26T01:57:45.467Z,19.98
2016-05-26T01:58:45.454Z,20.12
2016-05-26T01:59:45.425Z,20.08
2016-05-26T02:00:45.427Z,19.97
2016-05-26T02:01:45.399Z,19.98
2016-05-26T02:02:45.465Z,20.15
2016-05-26T02:03:45.420Z,20.04
2016-05-26T02:04:45.360Z,20.12
2016-05-26T02:05:45.190Z,20.05
2016-05-26T02:06:45.335Z,20.13
2016-05-26T02:07:45.321Z,20.16
2016-05-26T02:08:45.309Z,20.1
2016-05-26T02:09:45.295Z,20.17
2016-05-26T02:10:45.283Z,20.07
2016-05-26T02:11:45.411Z,20.15
2016-05-26T02:12:45.256Z,20.12
2016-05-26T02:13:45.088Z,20.16
2016-05-26T02:14:45.075Z,20.04
2016-05-26T02:15:45.061Z,20.1
2016-05-26T02:16:45.189Z,20.15
2016-05-26T02:17:45.192Z,20.17
2016-05-26T02:18:45.180Z,20.16
2016-05-26T02:19:45.464Z,20.16
2016-05-26T02:20:45.138Z,20.1
2016-05-26T02:21:45.141Z,20.12
2016-05-26T02:22:45.128Z,20.13
2016-05-26T02:23:45.099Z,20.1
2016-05-26T02:24:45.086Z,20.16
2016-05-26T02:25:44.916Z,20.05
2016-05-26T02:26:45.060Z,20.07
2016-05-26T02:27:45.438Z,20.08
2016-05-26T02:28:45.034Z,20.15
2016-05-26T02:29:45.021Z,20.07
2016-05-26T02:30:45.008Z,20.15
2016-05-26T02:31:44.995Z,20.16
2016-05-26T02:32:44.842Z,20.12
2016-05-26T02:33:44.970Z,20.05
2016-05-26T02:34:44.941Z,20.15
2016-05-26T02:35:45.460Z,20.15
2016-05-26T02:36:44.931Z,20.2
2016-05-26T02:37:44.934Z,20.04
2016-05-26T02:38:44.890Z,20.07
2016-05-26T02:39:44.876Z,20.19
2016-05-26T02:40:44.879Z,20.07
2016-05-26T02:41:44.851Z,20.12
2016-05-26T02:42:44.853Z,20.15
2016-05-26T02:43:45.465Z,20.07
2016-05-26T02:44:44.812Z,20.07
2016-05-26T02:45:44.658Z,20.2
2016-05-26T02:46:44.786Z,20.17
2016-05-26T02:47:44.850Z,20.07
2016-05-26T02:48:44.760Z,20.05
2016-05-26T02:49:44.856Z,20.1
2016-05-26T02:50:44.733Z,20.12
2016-05-26T02:51:44.768Z,20.13
2016-05-26T02:52:44.677Z,20.16
2016-05-26T02:53:44.680Z,20.12
2016-05-26T02:54:44.573Z,20.05
2016-05-26T02:55:44.686Z,20.19
2016-05-26T02:56:44.671Z,20.15
2016-05-26T02:57:44.628Z,20.05
2016-05-26T02:58:44.631Z,20.16
2016-05-26T02:59:44.758Z,20.1
2016-05-26T03:00:44.433Z,20.1
2016-05-26T03:01:44.591Z,20.17
2016-05-26T03:02:44.407Z,20.12
2016-05-26T03:03:44.551Z,20.2
2016-05-26T03:04:44.537Z,20.17
2016-05-26T03:05:44.524Z,20.2
2016-05-26T03:06:44.512Z,20.17
2016-05-26T03:07:44.795Z,20.15
2016-05-26T03:08:44.330Z,20.16
2016-05-26T03:09:44.473Z,20.19
2016-05-26T03:10:44.459Z,20.16
2016-05-26T03:11:44.447Z,20.08
2016-05-26T03:12:44.418Z,20.16
2016-05-26T03:13:44.421Z,20.17
2016-05-26T03:14:44.502Z,20.15
2016-05-26T03:15:44.739Z,20.17
2016-05-26T03:16:44.367Z,20.12
2016-05-26T03:17:44.464Z,20.17
2016-05-26T03:18:44.341Z,20.16
2016-05-26T03:19:44.344Z,20.22
2016-05-26T03:20:44.330Z,20.17
2016-05-26T03:21:44.302Z,20.1
2016-05-26T03:22:44.398Z,20.15
2016-05-26T03:23:44.775Z,20.1
2016-05-26T03:24:44.107Z,20.13
2016-05-26T03:25:44.250Z,20.16
2016-05-26T03:26:44.237Z,20.12
2016-05-26T03:27:44.224Z,20.12
2016-05-26T03:28:44.211Z,20.1
2016-05-26T03:29:44.183Z,20.05
2016-05-26T03:30:44.373Z,20.2
2016-05-26T03:31:44.172Z,20.08
2016-05-26T03:32:44.019Z,20.15
2016-05-26T03:33:44.147Z,20.16
2016-05-26T03:34:44.134Z,20.1
2016-05-26T03:35:43.964Z,20.13
2016-05-26T03:36:44.108Z,20.1
2016-05-26T03:37:44.282Z,20.08
2016-05-26T03:38:44.082Z,20.1
2016-05-26T03:39:44.053Z,20.16
2016-05-26T03:40:44.040Z,20.19
2016-05-26T03:41:44.043Z,20.07
2016-05-26T03:42:44.014Z,20.07
2016-05-26T03:43:44.001Z,20.2
2016-05-26T03:44:43.989Z,20.2
2016-05-26T03:45:44.428Z,20.2
2016-05-26T03:46:43.962Z,20.12
2016-05-26T03:47:43.637Z,20.15
2016-05-26T03:48:43.781Z,20.16
2016-05-26T03:49:43.925Z,20.08
2016-05-26T03:50:43.911Z,20.08
2016-05-26T03:51:43.883Z,20.17
2016-05-26T03:52:43.728Z,20.19
2016-05-26T03:53:44.419Z,20.16
2016-05-26T03:54:43.859Z,20.04
2016-05-26T03:55:43.831Z,20.12
2016-05-26T03:56:43.833Z,20.07
2016-05-26T03:57:43.649Z,20.12
2016-05-26T03:58:43.807Z,20.12
2016-05-26T03:59:43.779Z,20.07
2016-05-26T04:00:43.766Z,20.19
2016-05-26T04:01:44.269Z,20.04
2016-05-26T04:02:43.771Z,20.08
2016-05-26T04:03:43.727Z,20.1
2016-05-26T04:04:43.715Z,20.17
2016-05-26T04:05:43.718Z,20.1
2016-05-26T04:06:43.688Z,20.1
2016-05-26T04:07:43.676Z,20.15
2016-05-26T04:08:43.663Z,20.2
2016-05-26T04:09:44.306Z,20.12
2016-05-26T04:10:43.652Z,20.08
2016-05-26T04:11:43.623Z,20.17
2016-05-26T04:12:43.611Z,20.17
2016-05-26T04:13:43.598Z,20.13
2016-05-26T04:14:43.585Z,20.17
2016-05-26T04:15:43.572Z,20.16
2016-05-26T04:16:43.559Z,20.19
2016-05-26T04:17:43.717Z,20.19
2016-05-26T04:18:43.534Z,20.13
2016-05-26T04:19:43.521Z,20.12
2016-05-26T04:20:43.491Z,20.13
2016-05-26T04:21:43.478Z,20.17
2016-05-26T04:22:43.481Z,20.12
2016-05-26T04:23:43.453Z,20.17
2016-05-26T04:24:43.456Z,20.16
2016-05-26T04:25:44.489Z,20.1
2016-05-26T04:26:43.258Z,20.12
2016-05-26T04:27:43.402Z,20.12
2016-05-26T04:28:43.404Z,20.13
2016-05-26T04:29:43.375Z,20.12
2016-05-26T04:30:43.363Z,20.13
2016-05-26T04:31:43.177Z,20.13
2016-05-26T04:32:43.180Z,20.1
2016-05-26T04:33:43.621Z,20.1
2016-05-26T04:34:43.295Z,20.12
2016-05-26T04:35:43.298Z,20.19
2016-05-26T04:36:43.268Z,20.12
2016-05-26T04:37:43.272Z,20.17
2016-05-26T04:38:43.103Z,20.16
2016-05-26T04:39:43.246Z,20.13
2016-05-26T04:40:43.218Z,20.1
2016-05-26T04:41:43.626Z,20.08
2016-05-26T04:42:43.035Z,20.15
2016-05-26T04:43:43.195Z,20.08
2016-05-26T04:44:43.181Z,20.07
2016-05-26T04:45:43.184Z,20.1
2016-05-26T04:46:42.984Z,20.15
2016-05-26T04:47:43.064Z,20.07
2016-05-26T04:48:43.114Z,20.1
2016-05-26T04:49:44.507Z,20.12
2016-05-26T04:50:43.072Z,20.15
2016-05-26T04:51:42.919Z,20.17
2016-05-26T04:52:42.906Z,20.13
2016-05-26T04:53:43.050Z,20.07
2016-05-26T04:54:43.037Z,20.15
2016-05-26T04:55:43.022Z,20.1
2016-05-26T04:56:43.026Z,20.04
2016-05-26T04:57:42.998Z,20.07
2016-05-26T04:58:42.985Z,20.19
2016-05-26T04:59:42.816Z,20.15
2016-05-26T05:00:42.958Z,20.15
2016-05-26T05:01:42.946Z,20.08
2016-05-26T05:02:42.636Z,20.15
2016-05-26T05:03:42.748Z,20.16
2016-05-26T05:04:42.907Z,20.19
2016-05-26T05:05:42.893Z,20.12
2016-05-26T05:06:42.881Z,20.1
2016-05-26T05:07:42.853Z,20.1
2016-05-26T05:08:42.840Z,20.08
2016-05-26T05:09:42.826Z,20.1
2016-05-26T05:10:42.829Z,20.2
2016-05-26T05:11:42.801Z,20.1
2016-05-26T05:12:42.804Z,20.05
2016-05-26T05:13:42.776Z,20.1
2016-05-26T05:14:42.653Z,20.08
2016-05-26T05:15:42.749Z,20.2
2016-05-26T05:16:42.737Z,20.07
2016-05-26T05:17:42.582Z,20.19
2016-05-26T05:18:43.163Z,20.16
2016-05-26T05:19:42.697Z,20.15
2016-05-26T05:20:42.669Z,20.13
2016-05-26T05:21:42.656Z,20.15
2016-05-26T05:22:42.658Z,20.19
2016-05-26T05:23:42.646Z,20.17
2016-05-26T05:24:42.461Z,20.16
2016-05-26T05:25:42.603Z,20.05
2016-05-26T05:26:42.591Z,20.2
2016-05-26T05:27:42.422Z,20.1
2016-05-26T05:28:42.409Z,20.08
2016-05-26T05:29:42.553Z,20.05
2016-05-26T05:30:42.633Z,20.08
2016-05-26T05:31:42.527Z,20.05
2016-05-26T05:32:42.358Z,20.13
2016-05-26T05:33:42.516Z,20.12
2016-05-26T05:34:42.488Z,20.2
2016-05-26T05:35:42.475Z,20.13
2016-05-26T05:36:42.462Z,20.16
2016-05-26T05:37:42.465Z,20.12
2016-05-26T05:38:42.670Z,20.19
2016-05-26T05:39:42.266Z,20.15
2016-05-26T05:40:42.410Z,20.1
2016-05-26T05:41:42.241Z,20.1
2016-05-26T05:42:42.384Z,20.12
2016-05-26T05:43:42.199Z,20.16
2016-05-26T05:44:42.342Z,20.16
2016-05-26T05:45:42.189Z,20.08
2016-05-26T05:46:42.676Z,20.07
2016-05-26T05:47:42.695Z,20.16
2016-05-26T05:48:42.838Z,20.15
2016-05-26T05:49:42.278Z,20.08
2016-05-26T05:50:42.281Z,20.13
2016-05-26T05:51:42.253Z,20.16
2016-05-26T05:52:42.239Z,20.1
2016-05-26T05:53:42.132Z,20.12
2016-05-26T05:54:42.650Z,20.13
2016-05-26T05:55:42.200Z,20.1
2016-05-26T05:56:42.172Z,20.04
2016-05-26T05:57:42.018Z,20.05
2016-05-26T05:58:42.021Z,20.13
2016-05-26T05:59:42.149Z,20.2
2016-05-26T06:00:42.135Z,20.05
2016-05-26T06:01:42.123Z,20.07
2016-05-26T06:02:42.657Z,20.15
2016-05-26T06:03:42.300Z,20.13
2016-05-26T06:04:42.100Z,20.13
2016-05-26T06:05:42.055Z,20.17
2016-05-26T06:06:42.043Z,20.19
2016-05-26T06:07:42.029Z,20.16
2016-05-26T06:08:42.048Z,20.15
2016-05-26T06:09:42.004Z,20.07
2016-05-26T06:10:42.694Z,20.13
2016-05-26T06:11:41.977Z,20.1
2016-05-26T06:12:41.965Z,20.13
2016-05-26T06:13:41.952Z,20.04
2016-05-26T06:14:41.954Z,20.1
2016-05-26T06:15:41.926Z,20.07
2016-05-26T06:16:41.912Z,20.15
2016-05-26T06:17:41.743Z,20.19
2016-05-26T06:18:41.966Z,20.2
2016-05-26T06:19:41.874Z,20.1
2016-05-26T06:20:41.862Z,20.12
2016-05-26T06:21:41.848Z,20.2
2016-05-26T06:22:41.836Z,20.15
2016-05-26T06:23:41.807Z,20.05
2016-05-26T06:24:41.794Z,20.04
2016-05-26T06:25:41.797Z,20.08
2016-05-26T06:26:41.972Z,20.15
2016-05-26T06:27:41.755Z,20.1
2016-05-26T06:28:41.742Z,20.15
2016-05-26T06:29:41.730Z,20.04
2016-05-26T06:30:41.716Z,20.15
2016-05-26T06:31:41.703Z,20.13
2016-05-26T06:32:41.534Z,20.2
2016-05-26T06:33:42.130Z,20.15
2016-05-26T06:34:41.977Z,20.05
2016-05-26T06:35:41.666Z,20.08
2016-05-26T06:36:41.638Z,20.05
2016-05-26T06:37:41.470Z,20.08
2016-05-26T06:38:41.457Z,20.13
2016-05-26T06:39:41.585Z,20.15
2016-05-26T06:40:41.587Z,20.1
2016-05-26T06:41:41.558Z,20.15
2016-05-26T06:42:41.999Z,20.08
2016-05-26T06:43:41.549Z,20.07
2016-05-26T06:44:41.520Z,20.13
2016-05-26T06:45:41.507Z,20.15
2016-05-26T06:46:41.510Z,20.1
2016-05-26T06:47:41.324Z,20.16
2016-05-26T06:48:41.796Z,20.07
2016-05-26T06:49:41.611Z,20.1
2016-05-26T06:50:41.286Z,20.19
2016-05-26T06:51:41.429Z,20.08
2016-05-26T06:52:41.417Z,20.13
2016-05-26T06:53:41.403Z,20.17
2016-05-26T06:54:41.389Z,20.16
2016-05-26T06:55:41.393Z,20.04
2016-05-26T06:56:41.364Z,20.1
2016-05-26T06:57:41.601Z,20.12
2016-05-26T06:58:41.339Z,20.08
2016-05-26T06:59:41.310Z,20.1
2016-05-26T07:00:41.313Z,20.12
2016-05-26T07:01:41.300Z,20.08
2016-05-26T07:02:41.287Z,20.08
2016-05-26T07:03:41.274Z,20.05
2016-05-26T07:04:41.245Z,20.07
2016-05-26T07:05:41.483Z,20.23
2016-05-26T07:06:41.219Z,20.07
2016-05-26T07:07:41.207Z,20.15
2016-05-26T07:08:41.052Z,20.05
2016-05-26T07:09:41.180Z,20.1
2016-05-26T07:10:41.183Z,20.1
2016-05-26T07:11:40.998Z,20.1
2016-05-26T07:12:41.141Z,20.15
2016-05-26T07:13:41.738Z,20.08
2016-05-26T07:14:41.116Z,20.08
2016-05-26T07:15:41.103Z,20.08
2016-05-26T07:16:40.949Z,20.15
2016-05-26T07:17:41.092Z,20.19
2016-05-26T07:18:41.737Z,20.1
2016-05-26T07:19:41.052Z,20.05
2016-05-26T07:20:41.054Z,20.17
2016-05-26T07:21:41.760Z,20.16
2016-05-26T07:22:41.012Z,20.25
2016-05-26T07:23:41.000Z,20.13
2016-05-26T07:24:40.987Z,20.22
2016-05-26T07:25:40.817Z,20.2
2016-05-26T07:26:40.789Z,20.15
2016-05-26T07:27:40.948Z,20.19
2016-05-26T07:28:40.919Z,20.19
2016-05-26T07:29:40.766Z,20.23
2016-05-26T07:30:40.908Z,20.22
2016-05-26T07:31:40.880Z,20.2
2016-05-26T07:32:40.899Z,20.2
2016-05-26T07:33:40.683Z,20.16
2016-05-26T07:34:40.841Z,20.19
2016-05-26T07:35:40.828Z,20.2
2016-05-26T07:36:40.830Z,20.2
2016-05-26T07:37:40.911Z,20.2
2016-05-26T07:38:40.830Z,20.2
2016-05-26T07:39:40.841Z,20.19
2016-05-26T07:40:40.713Z,20.19
2016-05-26T07:41:40.708Z,20.2
2016-05-26T07:42:40.868Z,20.2
2016-05-26T07:43:40.708Z,20.17
2016-05-26T07:44:40.688Z,20.2
2016-05-26T07:45:41.074Z,20.16
2016-05-26T07:46:40.836Z,20.19
2016-05-26T07:47:40.845Z,20.13
2016-05-26T07:48:40.834Z,20.17
2016-05-26T07:49:40.826Z,20.19
2016-05-26T07:50:40.800Z,20.17
2016-05-26T07:51:40.635Z,20.16
2016-05-26T07:52:40.796Z,20.31
2016-05-26T07:53:40.972Z,20.17
2016-05-26T07:54:40.756Z,20.19
2016-05-26T07:55:40.745Z,20.22
2016-05-26T07:56:40.577Z,20.2
2016-05-26T07:57:40.721Z,20.17
2016-05-26T07:58:40.723Z,20.17
2016-05-26T07:59:40.696Z,20.19
2016-05-26T08:00:40.777Z,20.26
2016-05-26T08:01:41.138Z,20.26
2016-05-26T08:02:40.642Z,20.33
2016-05-26T08:03:40.676Z,20.22
2016-05-26T08:04:40.632Z,20.26
2016-05-26T08:05:40.619Z,20.25
2016-05-26T08:06:40.606Z,20.3
2016-05-26T08:07:40.593Z,20.26
2016-05-26T08:08:40.782Z,20.25
2016-05-26T08:09:40.552Z,20.27
2016-05-26T08:10:40.539Z,20.27
2016-05-26T08:11:40.526Z,20.33
2016-05-26T08:12:40.357Z,20.3
2016-05-26T08:13:40.515Z,20.34
2016-05-26T08:14:40.487Z,20.42
2016-05-26T08:15:40.490Z,20.27
2016-05-26T08:16:40.774Z,20.35
2016-05-26T08:17:40.448Z,20.33
2016-05-26T08:18:40.653Z,20.42
2016-05-26T08:19:40.423Z,20.48
2016-05-26T08:20:40.409Z,20.41
2016-05-26T08:21:40.396Z,20.44
2016-05-26T08:22:40.383Z,20.46
2016-05-26T08:23:40.370Z,20.38
2016-05-26T08:24:40.654Z,20.1
2016-05-26T08:25:40.344Z,19.82
2016-05-26T08:26:40.331Z,19.55
2016-05-26T08:27:40.319Z,19.43
2016-05-26T08:28:40.305Z,19.35
2016-05-26T08:29:40.277Z,19.28
2016-05-26T08:30:40.264Z,19.32
2016-05-26T08:31:40.266Z,19.38
2016-05-26T08:32:40.800Z,19.35
2016-05-26T08:33:40.836Z,19.23
2016-05-26T08:34:40.227Z,19.24
2016-05-26T08:35:40.043Z,19.25
2016-05-26T08:36:40.202Z,19.09
2016-05-26T08:37:40.174Z,19.2
2016-05-26T08:38:40.161Z,19.01
2016-05-26T08:39:40.149Z,19.01
2016-05-26T08:40:40.775Z,18.94
2016-05-26T08:41:40.122Z,18.97
2016-05-26T08:42:40.110Z,18.96
2016-05-26T08:43:40.096Z,19.01
2016-05-26T08:44:40.083Z,19.12
2016-05-26T08:45:40.054Z,19.15
2016-05-26T08:46:39.885Z,19.16
2016-05-26T08:47:40.045Z,19.02
2016-05-26T08:48:40.829Z,19.05
2016-05-26T08:49:40.018Z,19.16
2016-05-26T08:50:40.006Z,19.27
2016-05-26T08:51:39.821Z,19.13
2016-05-26T08:52:40.011Z,19.07
2016-05-26T08:53:39.967Z,19.2
2016-05-26T08:54:39.938Z,19.27
2016-05-26T08:55:39.769Z,19.5
2016-05-26T08:56:40.100Z,19.55
2016-05-26T08:57:39.900Z,19.57
2016-05-26T08:58:39.886Z,19.64
2016-05-26T08:59:39.717Z,19.8
2016-05-26T09:00:39.845Z,20.02
2016-05-26T09:01:39.675Z,20.1
2016-05-26T09:02:39.835Z,19.95
2016-05-26T09:03:39.806Z,20
2016-05-26T09:04:40.090Z,20.12
2016-05-26T09:05:39.780Z,19.94
2016-05-26T09:06:39.752Z,19.79
2016-05-26T09:07:39.754Z,19.76
2016-05-26T09:08:39.569Z,19.9
2016-05-26T09:09:39.729Z,20.1
2016-05-26T09:10:39.699Z,20.1
2016-05-26T09:11:39.702Z,20
2016-05-26T09:12:40.080Z,20.15
2016-05-26T09:13:39.676Z,20.17
2016-05-26T09:14:39.648Z,19.97
2016-05-26T09:15:39.635Z,19.8
2016-05-26T09:16:39.638Z,19.68
2016-05-26T09:17:39.609Z,19.6
2016-05-26T09:18:39.456Z,19.67
2016-05-26T09:19:39.584Z,19.68
2016-05-26T09:20:39.414Z,19.67
2016-05-26T09:21:39.557Z,19.62
2016-05-26T09:22:39.389Z,19.7
2016-05-26T09:23:39.517Z,19.67
2016-05-26T09:24:39.520Z,19.65
2016-05-26T09:25:39.505Z,19.67
2016-05-26T09:26:39.493Z,19.67
2016-05-26T09:27:39.480Z,19.67
2016-05-26T09:28:39.467Z,19.67
2016-05-26T09:29:39.454Z,19.53
2016-05-26T09:30:39.270Z,19.58
2016-05-26T09:31:39.413Z,19.58
2016-05-26T09:32:39.400Z,19.58
2016-05-26T09:33:40.106Z,19.57
2016-05-26T09:34:39.374Z,19.55
2016-05-26T09:35:39.377Z,19.71
2016-05-26T09:36:40.004Z,19.82
2016-05-26T09:37:39.335Z,20.08
2016-05-26T09:38:39.322Z,20.15
2016-05-26T09:39:39.325Z,20.16
2016-05-26T09:40:39.296Z,20
2016-05-26T09:41:39.268Z,19.61
2016-05-26T09:42:39.271Z,19.53
2016-05-26T09:43:39.695Z,19.42
2016-05-26T09:44:39.229Z,19.27
2016-05-26T09:45:39.232Z,19.3
2016-05-26T09:46:39.204Z,19.16
2016-05-26T09:47:39.034Z,19.25
2016-05-26T09:48:39.865Z,19.4
2016-05-26T09:49:39.165Z,19.47
2016-05-26T09:50:39.010Z,19.4
2016-05-26T09:51:39.154Z,19.45
2016-05-26T09:52:39.125Z,19.52
2016-05-26T09:53:39.113Z,19.31
2016-05-26T09:54:39.084Z,19.38
2016-05-26T09:55:38.915Z,19.42
2016-05-26T09:56:38.901Z,19.28
2016-05-26T09:57:39.045Z,19.13
2016-05-26T09:58:39.032Z,19.24
2016-05-26T09:59:39.176Z,19.16
2016-05-26T10:00:39.006Z,19.28
2016-05-26T10:01:38.994Z,19.47
2016-05-26T10:02:38.980Z,19.61
2016-05-26T10:03:39.264Z,19.79
2016-05-26T10:04:38.970Z,19.86
2016-05-26T10:05:38.786Z,20
2016-05-26T10:06:38.928Z,20.07
2016-05-26T10:07:39.978Z,20.1
2016-05-26T10:08:38.903Z,20.16
2016-05-26T10:09:38.890Z,20.27
2016-05-26T10:10:38.861Z,20.13
2016-05-26T10:11:38.849Z,20.15
2016-05-26T10:12:38.820Z,20.13
2016-05-26T10:13:38.822Z,20.22
2016-05-26T10:14:38.810Z,20.25
2016-05-26T10:15:38.985Z,20.3
2016-05-26T10:16:38.768Z,20.33
2016-05-26T10:17:38.770Z,20.38
2016-05-26T10:18:39.086Z,20.33
2016-05-26T10:19:38.745Z,20.34
2016-05-26T10:20:38.732Z,20.33
2016-05-26T10:21:38.547Z,20.41
2016-05-26T10:22:38.690Z,20.35
2016-05-26T10:23:39.178Z,20.38
2016-05-26T10:24:38.681Z,20.44
2016-05-26T10:25:38.651Z,20.5
2016-05-26T10:26:38.482Z,20.53
2016-05-26T10:27:38.626Z,20.5
2016-05-26T10:28:38.598Z,20.57
2016-05-26T10:29:38.428Z,20.61
2016-05-26T10:30:38.603Z,20.66
2016-05-26T10:31:38.574Z,20.72
2016-05-26T10:32:38.561Z,20.66
2016-05-26T10:33:38.548Z,20.76
2016-05-26T10:34:38.519Z,20.76
2016-05-26T10:35:38.522Z,20.72
2016-05-26T10:36:38.508Z,20.61
2016-05-26T10:37:38.481Z,20.75
2016-05-26T10:38:38.468Z,20.81
2016-05-26T10:39:38.471Z,20.66
2016-05-26T10:40:38.442Z,20.79
2016-05-26T10:41:38.444Z,20.72
2016-05-26T10:42:38.260Z,20.72
2016-05-26T10:43:38.387Z,20.75
2016-05-26T10:44:38.234Z,20.75
2016-05-26T10:45:38.222Z,20.79
2016-05-26T10:46:38.208Z,20.75
2016-05-26T10:47:38.352Z,20.71
2016-05-26T10:48:38.276Z,20.79
2016-05-26T10:49:38.169Z,20.81
2016-05-26T10:50:38.296Z,20.83
2016-05-26T10:51:38.300Z,20.87
2016-05-26T10:52:38.271Z,20.85
2016-05-26T10:53:38.259Z,20.9
2016-05-26T10:54:38.104Z,20.87
2016-05-26T10:55:38.076Z,20.88
2016-05-26T10:56:38.219Z,20.87
2016-05-26T10:57:38.206Z,20.94
2016-05-26T10:58:38.193Z,20.96
2016-05-26T10:59:38.040Z,20.85
2016-05-26T11:00:38.167Z,20.88
2016-05-26T11:01:37.998Z,20.88
2016-05-26T11:02:38.142Z,20.87
2016-05-26T11:03:38.144Z,20.9
2016-05-26T11:04:38.319Z,20.93
2016-05-26T11:05:38.103Z,20.9
2016-05-26T11:06:37.934Z,20.94
2016-05-26T11:07:37.921Z,21.01
2016-05-26T11:08:38.064Z,20.83
2016-05-26T11:09:37.895Z,20.82
2016-05-26T11:10:38.819Z,20.69
2016-05-26T11:11:38.994Z,20.76
2016-05-26T11:12:38.013Z,20.75
2016-05-26T11:13:38.030Z,20.81
2016-05-26T11:14:37.986Z,20.71
2016-05-26T11:15:37.988Z,20.71
2016-05-26T11:16:37.976Z,20.76
2016-05-26T11:17:37.963Z,20.76
2016-05-26T11:18:38.294Z,20.75
2016-05-26T11:19:37.782Z,20.78
2016-05-26T11:20:37.924Z,20.78
2016-05-26T11:21:38.162Z,20.76
2016-05-26T11:22:38.102Z,20.75
2016-05-26T11:23:37.885Z,20.73
2016-05-26T11:24:37.873Z,20.63
2016-05-26T11:25:37.704Z,20.81
2016-05-26T11:26:37.847Z,20.76
2016-05-26T11:27:37.943Z,20.78
2016-05-26T11:28:37.820Z,20.72
2016-05-26T11:29:37.809Z,20.72
2016-05-26T11:30:37.795Z,20.76
2016-05-26T11:31:37.782Z,20.75
2016-05-26T11:32:37.753Z,20.66
2016-05-26T11:33:38.069Z,20.58
2016-05-26T11:34:37.744Z,20.6
2016-05-26T11:35:37.715Z,20.63
2016-05-26T11:36:37.702Z,20.71
2016-05-26T11:37:37.689Z,20.71
2016-05-26T11:38:37.880Z,20.72
2016-05-26T11:39:37.663Z,20.76
2016-05-26T11:40:37.478Z,20.85
2016-05-26T11:41:37.638Z,20.9
2016-05-26T11:42:37.609Z,20.88
2016-05-26T11:43:37.580Z,20.85
2016-05-26T11:44:38.849Z,20.9
2016-05-26T11:45:37.569Z,20.91
2016-05-26T11:46:37.557Z,20.93
2016-05-26T11:47:37.560Z,20.96
2016-05-26T11:48:37.407Z,20.88
2016-05-26T11:49:38.909Z,20.85
2016-05-26T11:50:37.568Z,20.96
2016-05-26T11:51:37.508Z,20.96
2016-05-26T11:52:37.355Z,20.98
2016-05-26T11:53:37.498Z,21.03
2016-05-26T11:54:37.923Z,20.97
2016-05-26T11:55:37.471Z,21.06
2016-05-26T11:56:37.429Z,21
2016-05-26T11:57:37.415Z,21.13
2016-05-26T11:58:37.386Z,21.11
2016-05-26T11:59:37.233Z,21.12
2016-05-26T12:00:37.392Z,21.19
2016-05-26T12:01:37.378Z,21.15
2016-05-26T12:02:37.350Z,21.11
2016-05-26T12:03:37.368Z,21.06
2016-05-26T12:04:37.325Z,21.13
2016-05-26T12:05:37.295Z,21.16
2016-05-26T12:06:37.158Z,21.16
2016-05-26T12:07:37.286Z,21.09
2016-05-26T12:08:37.272Z,21.16
2016-05-26T12:09:37.245Z,21.11
2016-05-26T12:10:37.231Z,21.13
2016-05-26T12:11:37.124Z,21.06
2016-05-26T12:12:37.221Z,21.08
2016-05-26T12:13:37.067Z,21.09
2016-05-26T12:14:37.227Z,21.15
2016-05-26T12:15:37.447Z,21.08
2016-05-26T12:16:37.028Z,21.13
2016-05-26T12:17:37.171Z,21.16
2016-05-26T12:18:37.549Z,21.11
2016-05-26T12:19:37.896Z,21.18
2016-05-26T12:20:37.118Z,21.08
2016-05-26T12:21:37.104Z,21.13
2016-05-26T12:22:37.091Z,21.09
2016-05-26T12:23:37.078Z,21.26
2016-05-26T12:24:37.504Z,21.19
2016-05-26T12:25:37.037Z,21.21
2016-05-26T12:26:36.883Z,21.28
2016-05-26T12:27:37.027Z,21.21
2016-05-26T12:28:37.014Z,21.21
2016-05-26T12:29:37.798Z,21.26
2016-05-26T12:30:36.957Z,21.19
2016-05-26T12:31:36.959Z,21.21
2016-05-26T12:32:36.946Z,21.3
2016-05-26T12:33:37.106Z,21.3
2016-05-26T12:34:36.906Z,21.22
2016-05-26T12:35:37.267Z,21.24
2016-05-26T12:36:38.441Z,21.22
2016-05-26T12:37:36.867Z,21.27
2016-05-26T12:38:36.885Z,21.22
2016-05-26T12:39:36.856Z,21.27
2016-05-26T12:40:36.859Z,21.38
2016-05-26T12:41:37.939Z,21.34
2016-05-26T12:42:36.817Z,21.37
2016-05-26T12:43:36.804Z,21.4
2016-05-26T12:44:36.808Z,21.4
2016-05-26T12:45:38.013Z,21.42
2016-05-26T12:46:36.781Z,21.42
2016-05-26T12:47:36.752Z,21.38
2016-05-26T12:48:36.755Z,21.48
2016-05-26T12:49:37.742Z,21.37
2016-05-26T12:50:36.713Z,21.46
2016-05-26T12:51:36.544Z,21.36
2016-05-26T12:52:36.704Z,21.37
2016-05-26T12:53:36.675Z,21.31
2016-05-26T12:54:36.662Z,21.27
2016-05-26T12:55:36.649Z,21.15
2016-05-26T12:56:36.636Z,21.11
2016-05-26T12:57:36.639Z,21.12